Time;durP1;ratioP1;P1;durP2;ratioP2;P2;SDS_P1;SDS_P2;PMS_P1;PMS_P2;Temp;Humidity;BMP_temperature;BMP_pressure;BME280_temperature;BME280_humidity;BME280_pressure;Samples;Min_cycle;Max_cycle;Signal;HPM_P1;HPM_P2
2022/01/24 00:01:13;;;;;;;11.10;6.07;;;;;;;5.20;100.00;102861.69;5010941;28;20150;-85
2022/01/24 00:03:41;;;;;;;12.88;7.38;;;;;;;5.20;100.00;102858.19;5022757;28;20059;-84
2022/01/24 00:06:14;;;;;;;9.65;7.13;;;;;;;5.19;100.00;102856.38;5039315;28;20041;-85
2022/01/24 00:08:42;;;;;;;10.32;7.15;;;;;;;5.20;100.00;102860.78;5041327;28;20044;-85
2022/01/24 00:11:13;;;;;;;9.25;6.55;;;;;;;5.20;100.00;102858.19;5023278;28;20040;-84
2022/01/24 00:17:06;;;;;;;11.98;6.75;;;;;;;5.18;100.00;102858.09;5070271;27;20894;-84
2022/01/24 00:27:48;;;;;;;12.15;7.43;;;;;;;5.16;100.00;102846.75;5039748;28;20055;-84
2022/01/24 00:30:17;;;;;;;15.25;8.07;;;;;;;5.15;100.00;102857.97;5043841;28;20135;-84
2022/01/24 00:32:43;;;;;;;9.93;7.53;;;;;;;5.14;100.00;102859.66;5058678;28;20055;-84
2022/01/24 00:35:12;;;;;;;9.82;6.57;;;;;;;5.13;100.00;102857.00;5043438;28;20044;-85
2022/01/24 00:37:42;;;;;;;8.90;7.13;;;;;;;5.14;100.00;102849.28;5042757;28;20055;-85
2022/01/24 00:40:10;;;;;;;10.85;8.32;;;;;;;5.15;100.00;102852.78;5059820;28;20048;-85
2022/01/24 00:42:49;;;;;;;13.90;8.80;;;;;;;5.15;100.00;102852.78;5058718;28;20048;-83
2022/01/24 00:45:26;;;;;;;9.13;7.03;;;;;;;5.14;100.00;102854.47;5058908;28;20717;-84
2022/01/24 00:48:19;;;;;;;11.32;7.20;;;;;;;5.15;100.00;102855.38;5054508;28;20046;-84
2022/01/24 00:53:38;;;;;;;13.30;7.82;;;;;;;5.14;100.00;102859.66;5034857;28;21030;-85
2022/01/24 00:56:08;;;;;;;11.45;7.22;;;;;;;5.14;100.00;102858.78;5051042;28;20048;-86
2022/01/24 00:58:36;;;;;;;12.60;8.65;;;;;;;5.12;100.00;102866.50;5054280;28;20074;-84
2022/01/24 01:01:03;;;;;;;8.85;7.10;;;;;;;5.11;100.00;102853.41;5057932;28;20411;-85
2022/01/24 01:03:30;;;;;;;8.85;7.07;;;;;;;5.11;100.00;102856.00;5025177;28;20052;-84
2022/01/24 01:06:07;;;;;;;8.80;6.97;;;;;;;5.12;100.00;102850.00;5035787;28;20051;-84
2022/01/24 01:19:53;;;;;;;11.60;8.25;;;;;;;5.11;100.00;102845.63;4997928;28;20380;-83
2022/01/24 01:22:22;;;;;;;13.05;9.82;;;;;;;5.10;100.00;102849.06;5007759;28;20044;-83
2022/01/24 01:24:53;;;;;;;12.60;10.18;;;;;;;5.08;100.00;102842.91;5055950;28;20052;-83
2022/01/24 01:27:24;;;;;;;16.48;10.88;;;;;;;5.07;100.00;102852.41;5028836;28;20379;-84
2022/01/24 01:29:57;;;;;;;10.85;8.05;;;;;;;5.06;100.00;102847.09;5040567;28;20270;-83
2022/01/24 01:32:42;;;;;;;11.93;8.90;;;;;;;5.06;100.00;102845.41;5040417;28;20999;-84
2022/01/24 01:35:35;;;;;;;12.77;9.57;;;;;;;5.07;100.00;102856.69;5027192;28;20407;-84
2022/01/24 01:38:25;;;;;;;15.02;9.60;;;;;;;5.06;100.00;102855.81;5027862;28;20055;-83
2022/01/24 01:54:57;;;;;;;13.48;10.50;;;;;;;5.02;100.00;102848.69;5036024;28;19925;-82
2022/01/24 01:57:27;;;;;;;11.32;7.95;;;;;;;5.03;100.00;102845.28;5026249;28;20052;-84
2022/01/24 01:59:57;;;;;;;15.27;10.88;;;;;;;5.03;100.00;102853.06;5022444;28;20498;-84
2022/01/24 02:02:24;;;;;;;14.13;8.70;;;;;;;5.03;100.00;102852.16;5026499;28;20071;-84
2022/01/24 02:04:54;;;;;;;15.15;9.30;;;;;;;5.02;100.00;102852.97;5030545;28;20060;-84
2022/01/24 02:07:22;;;;;;;12.27;8.68;;;;;;;5.03;100.00;102849.56;5039770;28;20040;-83
2022/01/24 02:09:49;;;;;;;14.45;10.05;;;;;;;5.04;100.00;102843.56;5047445;28;20131;-83
2022/01/24 02:12:21;;;;;;;16.10;9.98;;;;;;;5.03;100.00;102844.38;5036634;28;20055;-84
2022/01/24 02:14:59;;;;;;;11.80;8.63;;;;;;;5.02;100.00;102845.19;5035400;28;20064;-85
2022/01/24 02:17:41;;;;;;;11.23;8.10;;;;;;;5.01;100.00;102841.72;5052140;28;20056;-84
2022/01/24 02:20:27;;;;;;;15.20;10.25;;;;;;;5.04;100.00;102840.97;5032165;28;20051;-84
2022/01/24 02:23:18;;;;;;;10.77;8.88;;;;;;;5.05;100.00;102847.94;5016761;28;20136;-85
2022/01/24 02:25:44;;;;;;;10.00;8.38;;;;;;;5.07;100.00;102846.31;5056006;28;20129;-84
2022/01/24 02:28:13;;;;;;;13.25;9.60;;;;;;;5.08;100.00;102848.97;5012625;28;20050;-84
2022/01/24 02:30:53;;;;;;;16.15;9.35;;;;;;;5.10;100.00;102846.47;5043975;28;20488;-84
2022/01/24 02:33:20;;;;;;;13.48;9.27;;;;;;;5.09;100.00;102845.56;5044454;28;20218;-84
2022/01/24 02:35:47;;;;;;;13.10;9.27;;;;;;;5.10;100.00;102841.28;5030877;28;20052;-84
2022/01/24 02:38:23;;;;;;;14.05;9.85;;;;;;;5.10;100.00;102836.97;5017349;28;20048;-85
2022/01/24 02:49:00;;;;;;;11.30;8.43;;;;;;;5.12;100.00;102824.97;5040254;28;20057;-84
2022/01/24 02:51:44;;;;;;;15.40;10.43;;;;;;;5.12;100.00;102834.44;5039377;28;20049;-84
2022/01/24 02:54:30;;;;;;;11.52;8.85;;;;;;;5.10;100.00;102829.19;5027458;28;20055;-85
2022/01/24 02:56:57;;;;;;;13.88;9.88;;;;;;;5.08;100.00;102829.91;5019112;28;20066;-85
2022/01/24 02:59:24;;;;;;;16.00;10.18;;;;;;;5.07;100.00;102829.03;5032439;28;20122;-83
2022/01/24 03:01:51;;;;;;;12.57;9.13;;;;;;;5.05;100.00;102838.44;5052400;28;20052;-84
2022/01/24 03:04:18;;;;;;;14.40;9.95;;;;;;;5.05;100.00;102830.66;5020464;28;20151;-85
2022/01/24 03:06:45;;;;;;;15.40;9.90;;;;;;;5.05;100.00;102825.47;5037797;28;20049;-83
2022/01/24 03:09:12;;;;;;;13.82;10.07;;;;;;;5.07;100.00;102829.03;5031822;28;20052;-84
2022/01/24 03:12:01;;;;;;;14.00;9.18;;;;;;;5.07;100.00;102816.06;5024532;28;20116;-83
2022/01/24 03:14:32;;;;;;;16.63;10.50;;;;;;;5.09;100.00;102821.31;5044642;28;20059;-85
2022/01/24 03:17:00;;;;;;;14.85;10.20;;;;;;;5.08;100.00;102816.94;5031682;28;20159;-83
2022/01/24 03:19:30;;;;;;;13.90;9.90;;;;;;;5.11;100.00;102822.25;5050750;28;20045;-85
2022/01/24 03:22:00;;;;;;;11.43;7.88;;;;;;;5.11;100.00;102823.16;5050327;28;20152;-84
2022/01/24 03:24:31;;;;;;;12.30;8.60;;;;;;;5.13;100.00;102815.44;5029680;28;20711;-83
2022/01/24 03:27:00;;;;;;;13.77;8.43;;;;;;;5.14;100.00;102827.63;5028452;28;20071;-84
2022/01/24 03:29:28;;;;;;;13.07;9.38;;;;;;;5.15;100.00;102826.81;5031802;28;20496;-84
2022/01/24 03:31:54;;;;;;;13.30;8.23;;;;;;;5.16;100.00;102825.97;5027503;28;20048;-85
2022/01/24 03:34:22;;;;;;;11.70;8.48;;;;;;;5.18;100.00;102832.16;5046479;28;20044;-83
2022/01/24 03:36:49;;;;;;;9.88;7.63;;;;;;;5.17;100.00;102821.69;5031563;28;20040;-84
2022/01/24 03:39:15;;;;;;;12.27;8.32;;;;;;;5.19;100.00;102833.03;5041714;28;20052;-84
2022/01/24 03:41:42;;;;;;;13.10;8.32;;;;;;;5.19;100.00;102825.22;5029227;28;20052;-84
2022/01/24 03:44:12;;;;;;;12.52;8.60;;;;;;;5.19;100.00;102830.44;5045117;28;20052;-84
2022/01/24 03:46:49;;;;;;;13.20;8.70;;;;;;;5.19;100.00;102830.44;5027162;28;20055;-84
2022/01/24 03:52:03;;;;;;;14.95;10.00;;;;;;;5.20;100.00;102821.81;5040951;28;20083;-85
2022/01/24 03:54:30;;;;;;;12.85;8.48;;;;;;;5.20;100.00;102821.81;5030159;28;20044;-84
2022/01/24 03:56:57;;;;;;;12.45;8.30;;;;;;;5.20;100.00;102825.34;5021661;28;20048;-83
2022/01/24 03:59:23;;;;;;;14.48;9.32;;;;;;;5.21;100.00;102815.81;5032362;28;20055;-84
2022/01/24 04:01:50;;;;;;;14.38;9.40;;;;;;;5.21;100.00;102816.69;5019062;28;20048;-85
2022/01/24 04:04:18;;;;;;;11.98;8.73;;;;;;;5.20;100.00;102812.34;5024473;28;20040;-84
2022/01/24 04:06:48;;;;;;;15.55;10.60;;;;;;;5.19;100.00;102813.16;5007753;28;20045;-84
2022/01/24 04:09:15;;;;;;;13.10;8.27;;;;;;;5.18;100.00;102808.78;5007052;28;20055;-84
2022/01/24 04:11:42;;;;;;;12.73;8.55;;;;;;;5.18;100.00;102808.78;5006199;28;20147;-85
2022/01/24 04:14:26;;;;;;;10.35;7.18;;;;;;;5.18;100.00;102808.78;5027330;28;20056;-83
2022/01/24 04:17:05;;;;;;;11.57;9.20;;;;;;;5.19;100.00;102810.56;5026183;28;20041;-84
2022/01/24 04:22:18;;;;;;;12.93;8.98;;;;;;;5.22;100.00;102802.03;5005415;28;20051;-84
2022/01/24 04:24:48;;;;;;;11.30;8.07;;;;;;;5.23;100.00;102803.81;5009433;28;21001;-83
2022/01/24 04:27:15;;;;;;;13.00;7.68;;;;;;;5.24;100.00;102806.47;5024446;28;20044;-83
2022/01/24 04:29:43;;;;;;;7.93;6.85;;;;;;;5.23;100.00;102807.28;5008073;28;20052;-83
2022/01/24 04:32:12;;;;;;;12.07;8.13;;;;;;;5.25;100.00;102815.16;5027939;28;20056;-83
2022/01/24 04:34:41;;;;;;;11.55;8.07;;;;;;;5.24;100.00;102816.88;5022496;28;20959;-84
2022/01/24 04:37:07;;;;;;;9.15;6.68;;;;;;;5.25;100.00;102816.06;5025826;28;20079;-83
2022/01/24 04:39:35;;;;;;;14.35;8.77;;;;;;;5.26;100.00;102814.34;5044871;28;20562;-85
2022/01/24 04:42:12;;;;;;;13.00;8.07;;;;;;;5.25;100.00;102816.06;4994965;28;20045;-83
2022/01/24 04:45:07;;;;;;;12.05;9.02;;;;;;;5.26;100.00;102807.44;5023516;28;20049;-85
2022/01/24 04:47:48;;;;;;;13.65;9.57;;;;;;;5.25;100.00;102809.97;5022962;28;20703;-84
2022/01/24 04:50:39;;;;;;;8.77;6.93;;;;;;;5.25;100.00;102809.97;5010518;28;20706;-84
2022/01/24 04:53:12;;;;;;;11.07;8.35;;;;;;;5.24;100.00;102811.69;5038267;28;20613;-84
2022/01/24 04:55:39;;;;;;;13.85;8.98;;;;;;;5.23;100.00;102822.00;5028227;28;20052;-84
2022/01/24 04:58:05;;;;;;;14.45;10.50;;;;;;;5.20;100.00;102822.75;5027507;28;20048;-86
2022/01/24 05:00:32;;;;;;;14.40;9.60;;;;;;;5.16;100.00;102818.19;5030651;28;20064;-84
2022/01/24 05:03:00;;;;;;;12.70;9.20;;;;;;;5.11;100.00;102819.66;5049056;28;20044;-84
2022/01/24 05:05:29;;;;;;;14.65;9.68;;;;;;;5.10;100.00;102820.50;5045137;28;20055;-87
2022/01/24 05:07:55;;;;;;;13.80;9.10;;;;;;;5.10;100.00;102821.38;5032974;28;20059;-84
2022/01/24 05:10:30;;;;;;;16.73;10.35;;;;;;;5.10;100.00;102818.78;5046507;28;20044;-86
2022/01/24 05:21:42;;;;;;;15.75;8.75;;;;;;;5.03;100.00;102806.34;5035020;28;20014;-84
2022/01/24 05:24:07;;;;;;;12.68;7.97;;;;;;;5.04;100.00;102809.81;5032430;28;20053;-85
2022/01/24 05:26:34;;;;;;;12.65;9.18;;;;;;;5.05;100.00;102809.00;5055577;28;20035;-85
2022/01/24 05:29:01;;;;;;;12.25;8.75;;;;;;;5.06;100.00;102808.16;5025813;28;20060;-86
2022/01/24 05:31:28;;;;;;;11.05;8.68;;;;;;;5.05;100.00;102815.06;5041220;28;20044;-86
2022/01/24 05:34:05;;;;;;;13.40;9.82;;;;;;;5.07;100.00;102817.75;5044965;28;20054;-86
2022/01/24 05:36:33;;;;;;;16.95;9.65;;;;;;;5.09;100.00;102821.31;5005523;28;20275;-86
2022/01/24 05:39:02;;;;;;;14.75;9.68;;;;;;;5.08;100.00;102819.53;5052027;28;20044;-84
2022/01/24 05:41:36;;;;;;;13.88;9.25;;;;;;;5.09;100.00;102817.00;5033510;28;20128;-85
2022/01/24 05:44:02;;;;;;;13.90;9.10;;;;;;;5.09;100.00;102809.22;5058103;28;20524;-87
2022/01/24 05:46:30;;;;;;;13.50;9.20;;;;;;;5.12;100.00;102818.84;5033988;28;20048;-87
2022/01/24 05:48:56;;;;;;;15.15;9.88;;;;;;;5.12;100.00;102814.56;5058444;28;20538;-87
2022/01/24 05:51:28;;;;;;;12.50;8.68;;;;;;;5.10;100.00;102813.59;5027301;28;20047;-84
2022/01/24 05:53:56;;;;;;;12.23;8.57;;;;;;;5.10;100.00;102811.00;5031846;28;20534;-86
2022/01/24 05:56:24;;;;;;;12.93;8.30;;;;;;;5.09;100.00;102810.94;5027882;28;21284;-85
2022/01/24 05:58:50;;;;;;;14.60;9.30;;;;;;;5.07;100.00;102813.47;5030138;28;20073;-85
2022/01/24 06:01:22;;;;;;;12.82;8.75;;;;;;;5.06;100.00;102811.69;5026288;28;20055;-86
2022/01/24 06:03:49;;;;;;;12.15;7.95;;;;;;;5.07;100.00;102820.34;5067055;28;20052;-85
2022/01/24 06:06:16;;;;;;;15.63;9.25;;;;;;;5.07;100.00;102815.16;5045591;28;20044;-86
2022/01/24 06:08:42;;;;;;;11.57;7.95;;;;;;;5.08;100.00;102816.94;5049614;28;20075;-86
2022/01/24 06:11:09;;;;;;;15.38;9.32;;;;;;;5.10;100.00;102817.91;5015329;28;20094;-85
2022/01/24 06:13:36;;;;;;;12.85;7.93;;;;;;;5.11;100.00;102817.06;5047165;28;20048;-86
2022/01/24 06:16:03;;;;;;;13.82;8.60;;;;;;;5.11;100.00;102815.38;5047614;28;20044;-85
2022/01/24 06:18:48;;;;;;;14.00;8.77;;;;;;;5.11;100.00;102817.97;5051609;28;20060;-85
2022/01/24 06:21:15;;;;;;;13.20;9.10;;;;;;;5.12;100.00;102808.47;5021958;28;20055;-88
2022/01/24 06:23:42;;;;;;;13.55;9.48;;;;;;;5.14;100.00;102817.25;5037673;28;20043;-84
2022/01/24 06:26:10;;;;;;;13.23;9.05;;;;;;;5.16;100.00;102810.41;5032885;28;20044;-84
2022/01/24 06:28:38;;;;;;;14.80;10.43;;;;;;;5.17;100.00;102809.59;5016331;28;20766;-84
2022/01/24 06:31:04;;;;;;;12.65;9.15;;;;;;;5.17;100.00;102806.13;5021678;28;20045;-85
2022/01/24 06:33:32;;;;;;;19.40;9.05;;;;;;;5.17;100.00;102809.59;5044405;28;20036;-85
2022/01/24 06:35:59;;;;;;;18.90;10.18;;;;;;;5.21;100.00;102810.63;5020395;28;20048;-85
2022/01/24 06:38:28;;;;;;;12.93;9.68;;;;;;;5.22;100.00;102808.09;5024444;28;20082;-86
2022/01/24 06:40:56;;;;;;;14.45;8.98;;;;;;;5.25;100.00;102803.06;5067017;28;20266;-84
2022/01/24 06:43:24;;;;;;;15.35;9.48;;;;;;;5.26;100.00;102804.81;5027766;28;20067;-84
2022/01/24 06:46:08;;;;;;;13.15;9.55;;;;;;;5.28;100.00;102807.53;5046170;28;20510;-85
2022/01/24 06:48:51;;;;;;;12.18;9.02;;;;;;;5.27;100.00;102811.81;5034750;28;20122;-84
2022/01/24 06:51:25;;;;;;;14.23;8.82;;;;;;;5.27;100.00;102816.13;5026692;28;20074;-84
2022/01/24 06:53:55;;;;;;;15.15;8.23;;;;;;;5.27;100.00;102818.72;5060241;28;20056;-86
2022/01/24 06:56:22;;;;;;;13.80;9.50;;;;;;;5.26;100.00;102814.34;5010859;28;20145;-84
2022/01/24 06:58:51;;;;;;;13.05;8.18;;;;;;;5.26;100.00;102812.63;5057781;28;20068;-84
2022/01/24 07:01:24;;;;;;;12.27;7.35;;;;;;;5.28;100.00;102811.00;5034679;28;20141;-85
2022/01/24 07:03:53;;;;;;;11.60;8.48;;;;;;;5.29;100.00;102815.38;5026980;28;20028;-85
2022/01/24 07:06:31;;;;;;;14.30;8.05;;;;;;;5.32;100.00;102818.91;5035611;28;20071;-84
2022/01/24 07:08:57;;;;;;;10.48;7.55;;;;;;;5.30;100.00;102816.25;5042713;28;20060;-85
2022/01/24 07:11:33;;;;;;;15.20;8.77;;;;;;;5.30;100.00;102824.94;5047323;28;20179;-86
2022/01/24 07:14:06;;;;;;;13.07;8.32;;;;;;;5.32;100.00;102826.72;5036521;28;20467;-84
2022/01/24 07:16:48;;;;;;;12.90;8.70;;;;;;;5.31;100.00;102828.44;5039538;28;20053;-83
2022/01/24 07:19:15;;;;;;;14.70;9.60;;;;;;;5.29;100.00;102827.47;5044505;28;20058;-84
2022/01/24 07:21:42;;;;;;;12.95;8.23;;;;;;;5.30;100.00;102821.44;5049557;28;20176;-84
2022/01/24 07:24:12;;;;;;;12.63;8.23;;;;;;;5.31;100.00;102818.03;5055868;28;20050;-84
2022/01/24 07:26:49;;;;;;;11.98;8.05;;;;;;;5.31;100.00;102825.84;5047830;28;20067;-84
2022/01/24 07:29:20;;;;;;;12.07;8.93;;;;;;;5.32;100.00;102822.44;5045806;28;20056;-84
2022/01/24 07:31:50;;;;;;;11.20;8.73;;;;;;;5.32;100.00;102830.22;5020808;28;20044;-83
2022/01/24 07:34:18;;;;;;;16.58;11.15;;;;;;;5.32;100.00;102822.44;5018843;28;20319;-84
2022/01/24 07:36:46;;;;;;;15.57;9.23;;;;;;;5.33;100.00;102823.31;5017760;28;20461;-86
2022/01/24 07:39:25;;;;;;;15.68;9.23;;;;;;;5.34;100.00;102822.50;5052445;28;20036;-85
2022/01/24 07:41:52;;;;;;;17.88;9.98;;;;;;;5.36;100.00;102826.03;5039307;28;20048;-83
2022/01/24 07:44:22;;;;;;;14.32;9.05;;;;;;;5.38;100.00;102829.63;5038105;28;20046;-85
2022/01/24 07:46:50;;;;;;;15.77;10.57;;;;;;;5.40;100.00;102833.19;5030491;28;20056;-86
2022/01/24 07:49:17;;;;;;;15.73;10.80;;;;;;;5.39;100.00;102828.81;5048903;28;20052;-85
2022/01/24 07:51:44;;;;;;;18.13;11.38;;;;;;;5.39;100.00;102828.81;5032792;28;20044;-83
2022/01/24 07:54:11;;;;;;;20.15;12.30;;;;;;;5.35;100.00;102825.16;5019060;28;20052;-86
2022/01/24 07:56:40;;;;;;;20.30;11.88;;;;;;;5.33;100.00;102825.91;5032616;28;20145;-86
2022/01/24 07:59:08;;;;;;;18.23;12.13;;;;;;;5.33;100.00;102821.59;5029370;28;20045;-85
2022/01/24 08:01:35;;;;;;;18.33;12.18;;;;;;;5.34;100.00;102831.16;5030934;28;20056;-86
2022/01/24 08:04:06;;;;;;;19.70;11.77;;;;;;;5.34;100.00;102827.69;5031264;28;20143;-86
2022/01/24 08:06:36;;;;;;;17.10;11.73;;;;;;;5.35;100.00;102819.09;5033204;28;20048;-85
2022/01/24 08:09:05;;;;;;;23.00;13.10;;;;;;;5.38;100.00;102821.81;5028362;28;20091;-87
2022/01/24 08:11:32;;;;;;;18.15;11.95;;;;;;;5.39;100.00;102828.81;5031558;28;20127;-85
2022/01/24 08:13:59;;;;;;;17.73;11.02;;;;;;;5.40;100.00;102825.41;5030577;28;20048;-84
2022/01/24 08:16:26;;;;;;;19.27;11.85;;;;;;;5.39;100.00;102826.19;5026769;28;20049;-88
2022/01/24 08:18:55;;;;;;;21.60;12.65;;;;;;;5.38;100.00;102829.63;5029505;28;20136;-86
2022/01/24 08:21:24;;;;;;;18.48;11.80;;;;;;;5.39;100.00;102821.88;5011809;28;20103;-85
2022/01/24 08:23:51;;;;;;;18.90;12.18;;;;;;;5.40;100.00;102826.28;5016498;28;20117;-84
2022/01/24 08:26:19;;;;;;;17.63;12.27;;;;;;;5.43;100.00;102825.53;5013432;28;20198;-84
2022/01/24 08:28:45;;;;;;;20.13;11.88;;;;;;;5.44;100.00;102827.31;5037724;28;20053;-85
2022/01/24 08:31:15;;;;;;;19.05;11.95;;;;;;;5.44;100.00;102820.41;4993736;28;20053;-85
2022/01/24 08:33:43;;;;;;;18.88;11.90;;;;;;;5.46;100.00;102821.38;4989948;28;20060;-85
2022/01/24 08:36:10;;;;;;;21.35;13.45;;;;;;;5.49;100.00;102827.50;5011418;28;20069;-85
2022/01/24 08:38:37;;;;;;;20.38;12.80;;;;;;;5.49;100.00;102822.31;5035406;28;20041;-87
2022/01/24 08:41:15;;;;;;;20.65;12.80;;;;;;;5.50;100.00;102819.81;5012556;28;20049;-86
2022/01/24 08:46:22;;;;;;;21.02;11.20;;;;;;;5.50;100.00;102816.31;5017691;28;20100;-83
2022/01/24 08:48:49;;;;;;;17.17;12.48;;;;;;;5.54;100.00;102824.34;5024353;28;20076;-86
2022/01/24 08:51:18;;;;;;;19.42;11.88;;;;;;;5.56;100.00;102817.47;5022131;28;20054;-83
2022/01/24 08:53:45;;;;;;;16.15;11.38;;;;;;;5.56;100.00;102817.47;5013270;28;20052;-86
2022/01/24 08:56:13;;;;;;;15.75;10.95;;;;;;;5.56;100.00;102809.69;5018113;28;20190;-83
2022/01/24 08:58:43;;;;;;;10.52;6.50;;;;;;;5.56;100.00;102809.69;5016532;28;20067;-84
2022/01/24 09:01:10;;;;;;;12.02;7.40;;;;;;;5.57;100.00;102816.66;5022555;28;20068;-83
2022/01/24 09:03:41;;;;;;;9.73;6.22;;;;;;;5.57;100.00;102818.38;5022099;28;20036;-85
2022/01/24 09:06:08;;;;;;;11.40;6.20;;;;;;;5.58;99.82;102818.47;5024010;28;20134;-86
2022/01/24 09:08:41;;;;;;;17.58;8.48;;;;;;;5.61;100.00;102818.59;5025356;28;20033;-84
2022/01/24 09:11:10;;;;;;;11.85;8.75;;;;;;;5.65;100.00;102822.22;5028302;28;20056;-85
2022/01/24 09:13:37;;;;;;;10.13;7.53;;;;;;;5.70;100.00;102820.72;5035065;28;20170;-86
2022/01/24 09:16:05;;;;;;;12.57;8.75;;;;;;;5.72;100.00;102826.00;5004779;28;20135;-85
2022/01/24 09:18:31;;;;;;;15.57;9.35;;;;;;;5.72;100.00;102824.31;5026252;28;20077;-86
2022/01/24 09:20:59;;;;;;;16.65;10.05;;;;;;;5.74;100.00;102824.38;5033643;28;20036;-84
2022/01/24 09:23:27;;;;;;;14.10;10.07;;;;;;;5.75;100.00;102826.13;5043783;28;20060;-85
2022/01/24 09:25:58;;;;;;;18.10;10.45;;;;;;;5.76;100.00;102826.22;5010826;28;20048;-83
2022/01/24 09:28:24;;;;;;;11.60;8.05;;;;;;;5.76;100.00;102821.03;5027391;28;20460;-86
2022/01/24 09:30:53;;;;;;;17.73;10.30;;;;;;;5.76;99.56;102825.31;5014128;28;20044;-85
2022/01/24 09:33:20;;;;;;;12.52;8.68;;;;;;;5.71;99.47;102826.81;5033704;28;20163;-85
2022/01/24 09:35:46;;;;;;;13.23;9.60;;;;;;;5.67;100.00;102818.00;5045036;28;20835;-84
2022/01/24 09:38:13;;;;;;;13.23;8.52;;;;;;;5.72;100.00;102820.78;5029127;28;20040;-83
2022/01/24 09:40:49;;;;;;;11.52;7.72;;;;;;;5.77;100.00;102819.28;5048646;28;20048;-85
2022/01/24 09:43:15;;;;;;;11.27;7.95;;;;;;;5.80;99.86;102825.53;5032744;28;20127;-86
2022/01/24 09:45:42;;;;;;;10.75;6.53;;;;;;;5.84;99.70;102825.66;5040132;28;20048;-87
2022/01/24 09:48:10;;;;;;;9.40;6.15;;;;;;;5.85;98.69;102827.44;5040620;28;20055;-85
2022/01/24 09:50:37;;;;;;;8.40;6.88;;;;;;;5.86;98.31;102824.91;5050171;28;20072;-85
2022/01/24 09:53:04;;;;;;;6.95;4.90;;;;;;;5.88;97.36;102823.28;5035469;28;20040;-86
2022/01/24 09:55:32;;;;;;;6.20;5.18;;;;;;;5.86;97.14;102819.72;5061520;28;20455;-84
2022/01/24 09:57:59;;;;;;;9.57;5.78;;;;;;;5.87;97.05;102821.50;5031557;28;20470;-84
2022/01/24 10:00:30;;;;;;;4.97;4.22;;;;;;;5.90;97.30;102816.44;5043904;28;20048;-86
2022/01/24 10:02:58;;;;;;;9.85;5.40;;;;;;;5.94;96.48;102818.38;5047183;28;20538;-88
2022/01/24 10:05:33;;;;;;;6.82;5.10;;;;;;;5.94;95.84;102818.38;5048407;28;20522;-85
2022/01/24 10:08:03;;;;;;;9.45;7.70;;;;;;;5.94;96.07;102815.78;5047113;28;20048;-83
2022/01/24 10:10:41;;;;;;;7.75;5.85;;;;;;;5.96;96.54;102814.13;5048344;28;20040;-84
2022/01/24 10:16:26;;;;;;;10.15;5.80;;;;;;;5.96;96.13;102816.72;5038539;28;20048;-84
2022/01/24 10:19:10;;;;;;;7.88;5.60;;;;;;;6.00;95.54;102819.47;5030755;28;20052;-84
2022/01/24 10:21:53;;;;;;;8.43;5.82;;;;;;;6.01;95.64;102816.06;5068608;28;20055;-84
2022/01/24 10:24:27;;;;;;;9.52;5.63;;;;;;;6.00;95.39;102816.88;5048865;28;20062;-86
2022/01/24 10:27:21;;;;;;;6.95;5.43;;;;;;;6.02;95.64;102820.44;5049252;28;20094;-86
2022/01/24 10:29:52;;;;;;;8.70;5.20;;;;;;;6.01;96.23;102816.97;5028305;28;20052;-82
2022/01/24 10:32:37;;;;;;;10.73;6.05;;;;;;;6.04;96.37;102818.81;5035231;28;20426;-83
2022/01/24 10:35:44;;;;;;;8.02;5.47;;;;;;;6.06;95.82;102818.06;5022194;28;20065;-84
2022/01/24 10:38:28;;;;;;;8.35;5.97;;;;;;;6.04;95.71;102813.63;5019449;28;20062;-83
2022/01/24 10:41:12;;;;;;;9.60;5.80;;;;;;;6.02;95.05;102812.63;5051640;28;20173;-86
2022/01/24 10:43:44;;;;;;;5.68;4.78;;;;;;;5.98;95.28;102814.22;5044399;28;21259;-83
2022/01/24 10:46:12;;;;;;;10.57;6.47;;;;;;;6.00;95.49;102812.59;5053025;28;20052;-84
2022/01/24 10:48:50;;;;;;;9.07;5.55;;;;;;;6.02;95.23;102816.13;5027260;28;20041;-83
2022/01/24 10:51:21;;;;;;;7.80;4.82;;;;;;;6.00;94.87;102812.59;5046791;28;20451;-84
2022/01/24 10:53:54;;;;;;;6.60;5.28;;;;;;;5.98;94.98;102809.00;5048758;28;20109;-85
2022/01/24 10:56:31;;;;;;;6.43;4.25;;;;;;;5.95;93.34;102806.25;5043011;28;20147;-84
2022/01/24 10:59:22;;;;;;;6.10;4.28;;;;;;;5.89;94.00;102811.16;5046539;28;20035;-85
2022/01/24 11:02:01;;;;;;;5.63;4.93;;;;;;;5.91;94.79;102812.13;5026550;28;20051;-87
2022/01/24 11:04:28;;;;;;;5.05;4.35;;;;;;;5.93;94.16;102814.00;5057762;28;20149;-85
2022/01/24 11:07:01;;;;;;;3.85;3.47;;;;;;;5.92;93.14;102813.91;5029729;28;20052;-86
2022/01/24 11:12:24;;;;;;;4.75;3.70;;;;;;;5.80;92.41;102812.53;5074641;28;22633;-85
2022/01/24 11:15:01;;;;;;;4.22;3.60;;;;;;;5.69;92.77;102810.28;5055719;28;20061;-86
2022/01/24 11:20:21;;;;;;;6.07;3.20;;;;;;;5.69;92.99;102811.16;5044854;28;20051;-86
2022/01/24 11:22:58;;;;;;;2.83;2.55;;;;;;;5.73;91.11;102807.00;5035150;28;20121;-86
2022/01/24 11:25:39;;;;;;;3.67;2.47;;;;;;;5.65;91.35;102798.84;5029657;28;20051;-86
2022/01/24 11:28:09;;;;;;;4.35;2.70;;;;;;;5.65;91.93;102793.63;5048650;28;20067;-84
2022/01/24 11:31:10;;;;;;;2.58;1.80;;;;;;;5.69;91.10;102792.09;5046917;28;20044;-85
2022/01/24 11:33:44;;;;;;;2.55;2.35;;;;;;;5.71;91.86;102793.03;5038225;28;20052;-84
2022/01/24 11:36:11;;;;;;;;;;;;;;;5.73;91.48;102787.06;5065730;28;20102;-85
2022/01/24 11:41:33;;;;;;;2.67;2.30;;;;;;;5.80;92.18;102783.94;5058444;28;20295;-86
2022/01/24 11:44:09;;;;;;;2.72;2.42;;;;;;;5.83;91.46;102787.47;5049857;28;20059;-84
2022/01/24 11:46:49;;;;;;;2.65;2.45;;;;;;;5.81;92.10;102784.81;5043312;28;20040;-84
2022/01/24 11:49:32;;;;;;;4.38;2.65;;;;;;;5.81;92.11;102769.22;5036642;28;20651;-84
2022/01/24 11:52:14;;;;;;;5.03;2.70;;;;;;;5.82;92.26;102777.94;5036809;28;20040;-83
2022/01/24 11:54:55;;;;;;;5.05;2.78;;;;;;;5.82;90.80;102776.22;5055811;28;20057;-85
2022/01/24 11:57:47;;;;;;;3.38;3.08;;;;;;;5.72;90.88;102781.81;5045602;28;20024;-86
2022/01/24 12:00:27;;;;;;;4.22;3.22;;;;;;;5.70;91.80;102784.34;5071021;28;20103;-85
2022/01/24 12:03:23;;;;;;;5.00;3.08;;;;;;;5.69;91.40;102779.97;5025287;28;20043;-84
2022/01/24 12:06:04;;;;;;;2.75;2.55;;;;;;;5.70;91.74;102781.75;5048887;28;20071;-85
2022/01/24 12:08:41;;;;;;;2.30;2.17;;;;;;;5.70;92.02;102780.88;5062434;28;20036;-86
2022/01/24 12:11:31;;;;;;;3.35;2.92;;;;;;;5.70;92.12;102776.56;5046501;28;20059;-85
2022/01/24 12:14:13;;;;;;;16.17;5.78;;;;;;;5.70;92.06;102770.47;5028563;28;20051;-86
2022/01/24 12:16:45;;;;;;;4.18;3.78;;;;;;;5.70;92.17;102768.75;5036578;28;20062;-86
2022/01/24 12:19:12;;;;;;;3.28;2.70;;;;;;;5.70;91.86;102765.28;5049284;28;20133;-86
2022/01/24 12:21:43;;;;;;;2.97;2.70;;;;;;;5.69;92.15;102764.38;5014367;28;20147;-86
2022/01/24 12:24:15;;;;;;;3.08;2.88;;;;;;;5.70;91.82;102763.56;5042726;28;20158;-86
2022/01/24 12:27:04;;;;;;;4.78;3.20;;;;;;;5.68;91.64;102764.31;5061897;28;20044;-84
2022/01/24 12:29:31;;;;;;;4.05;3.10;;;;;;;5.67;91.95;102755.63;5064729;28;20533;-84
2022/01/24 12:32:01;;;;;;;4.43;3.20;;;;;;;5.67;92.00;102762.53;5069877;28;20040;-84
2022/01/24 12:34:43;;;;;;;6.78;3.30;;;;;;;5.69;92.36;102761.78;5068692;28;20055;-84
2022/01/24 12:37:30;;;;;;;3.08;2.60;;;;;;;5.69;92.03;102761.78;5070383;28;20132;-85
2022/01/24 12:40:09;;;;;;;2.00;1.80;;;;;;;5.70;91.47;102758.38;5070034;28;20024;-85
2022/01/24 12:43:04;;;;;;;2.42;2.28;;;;;;;5.69;90.33;102761.78;5054255;28;20048;-85
2022/01/24 12:51:11;;;;;;;;;;;;;;;5.69;91.21;102753.97;5060024;28;20440;-85
2022/01/24 12:53:39;;;;;;;1.80;1.70;;;;;;;5.73;91.52;102753.28;5074466;28;19935;-85
2022/01/24 12:56:07;;;;;;;5.22;1.70;;;;;;;5.78;91.42;102761.31;5060385;28;20470;-86
2022/01/24 12:58:50;;;;;;;2.78;2.13;;;;;;;5.78;91.37;102754.38;5041570;28;20479;-86
2022/01/24 13:04:23;;;;;;;3.78;2.55;;;;;;;5.68;89.99;102743.53;5037611;28;20067;-84
2022/01/24 13:06:55;;;;;;;6.85;2.08;;;;;;;5.69;90.60;102747.91;5039888;28;20060;-85
2022/01/24 13:09:25;;;;;;;2.03;1.83;;;;;;;5.69;89.70;102748.78;5046434;28;20055;-85